createdAt,value
2022-10-22T00:00:45.904Z,3.70
2022-10-22T00:02:19.890Z,3.90
2022-10-22T00:03:51.608Z,3.90
2022-10-22T00:05:23.256Z,3.80
2022-10-22T00:06:54.872Z,3.00
2022-10-22T00:08:26.773Z,3.20
2022-10-22T00:09:58.476Z,3.07
2022-10-22T00:11:30.120Z,3.90
2022-10-22T00:13:01.744Z,3.70
2022-10-22T00:14:33.413Z,3.33
2022-10-22T00:16:05.231Z,3.80
2022-10-22T00:17:37.002Z,3.33
2022-10-22T00:19:09.188Z,3.30
2022-10-22T00:20:41.060Z,3.03
2022-10-22T00:22:12.985Z,3.27
2022-10-22T00:23:44.604Z,3.57
2022-10-22T00:25:16.453Z,3.30
2022-10-22T00:26:48.154Z,3.87
2022-10-22T00:28:20.310Z,3.10
2022-10-22T00:29:52.094Z,3.10
2022-10-22T00:31:23.741Z,3.40
2022-10-22T00:32:55.342Z,3.13
2022-10-22T00:34:27.184Z,3.70
2022-10-22T00:35:58.891Z,3.40
2022-10-22T00:37:30.925Z,3.13
2022-10-22T00:39:02.654Z,3.20
2022-10-22T00:40:34.289Z,3.53
2022-10-22T00:42:06.150Z,3.40
2022-10-22T00:43:59.145Z,2.90
2022-10-22T00:45:30.933Z,3.13
2022-10-22T00:47:02.653Z,3.30
2022-10-22T00:48:34.390Z,3.40
2022-10-22T00:50:16.991Z,3.33
2022-10-22T00:51:48.620Z,3.30
2022-10-22T00:53:27.233Z,3.47
2022-10-22T00:54:59.873Z,3.27
2022-10-22T00:56:32.945Z,3.13
2022-10-22T00:58:04.865Z,3.10
2022-10-22T00:59:38.047Z,3.10
2022-10-22T01:01:15.079Z,3.50
2022-10-22T01:02:49.834Z,3.53
2022-10-22T01:04:21.695Z,3.37
2022-10-22T01:06:03.397Z,3.30
2022-10-22T01:07:42.497Z,3.43
2022-10-22T01:09:38.622Z,3.40
2022-10-22T01:11:40.786Z,3.17
2022-10-22T01:13:45.099Z,3.33
2022-10-22T01:15:45.419Z,3.50
2022-10-22T01:17:39.613Z,3.80
2022-10-22T01:19:26.706Z,3.33
2022-10-22T01:21:16.372Z,2.83
2022-10-22T01:23:21.217Z,3.13
2022-10-22T01:24:58.584Z,3.07
2022-10-22T01:26:54.287Z,3.30
2022-10-22T01:28:57.487Z,3.07
2022-10-22T01:30:29.740Z,3.23
2022-10-22T01:32:08.971Z,3.50
2022-10-22T01:33:41.947Z,2.67
2022-10-22T01:35:18.079Z,3.60
2022-10-22T01:36:53.329Z,3.00
2022-10-22T01:38:25.979Z,3.07
2022-10-22T01:40:04.319Z,3.10
2022-10-22T01:41:36.364Z,3.27
2022-10-22T01:43:10.465Z,3.20
2022-10-22T01:44:42.636Z,3.27
2022-10-22T01:46:15.617Z,3.53
2022-10-22T01:48:11.327Z,3.43
2022-10-22T01:50:10.312Z,3.47
2022-10-22T01:51:56.091Z,3.43
2022-10-22T01:53:50.058Z,3.77
2022-10-22T01:55:43.623Z,3.70
2022-10-22T01:57:27.357Z,3.50
2022-10-22T01:59:37.483Z,3.40
2022-10-22T02:01:23.063Z,3.83
2022-10-22T02:03:10.694Z,3.30
2022-10-22T02:04:53.869Z,3.67
2022-10-22T02:06:28.201Z,3.77
2022-10-22T02:08:04.445Z,3.77
2022-10-22T02:09:38.071Z,3.77
2022-10-22T02:11:12.644Z,2.83
2022-10-22T02:12:50.259Z,3.30
2022-10-22T02:14:22.687Z,3.60
2022-10-22T02:15:55.189Z,3.30
2022-10-22T02:17:30.432Z,3.60
2022-10-22T02:19:05.722Z,4.00
2022-10-22T02:20:40.948Z,3.60
2022-10-22T02:22:12.954Z,3.67
2022-10-22T02:23:44.966Z,3.40
2022-10-22T02:25:16.877Z,3.80
2022-10-22T02:27:12.034Z,3.13
2022-10-22T02:29:03.040Z,3.63
2022-10-22T02:30:38.005Z,3.73
2022-10-22T02:32:13.449Z,3.47
2022-10-22T02:33:48.765Z,3.40
2022-10-22T02:35:23.772Z,3.97
2022-10-22T02:36:56.301Z,3.67
2022-10-22T02:38:29.011Z,3.40
2022-10-22T02:40:00.686Z,3.70
2022-10-22T02:41:32.582Z,3.73
2022-10-22T02:43:05.861Z,3.63
2022-10-22T02:44:37.464Z,4.13
2022-10-22T02:46:10.717Z,3.73
2022-10-22T02:47:42.362Z,4.60
2022-10-22T02:49:13.948Z,3.30
2022-10-22T02:50:45.728Z,3.17
2022-10-22T02:52:17.441Z,3.67
2022-10-22T02:53:49.052Z,3.77
2022-10-22T02:55:20.697Z,3.77
2022-10-22T02:56:52.334Z,3.80
2022-10-22T02:58:23.926Z,4.07
2022-10-22T02:59:55.551Z,3.77
2022-10-22T03:01:27.190Z,3.50
2022-10-22T03:02:58.771Z,3.63
2022-10-22T03:04:30.713Z,3.83
2022-10-22T03:06:02.352Z,4.00
2022-10-22T03:07:34.373Z,3.63
2022-10-22T03:09:06.033Z,3.70
2022-10-22T03:10:37.728Z,4.13
2022-10-22T03:12:09.467Z,4.00
2022-10-22T03:13:41.112Z,3.90
2022-10-22T03:15:12.744Z,4.57
2022-10-22T03:16:44.411Z,3.40
2022-10-22T03:18:17.208Z,4.20
2022-10-22T03:19:48.978Z,3.97
2022-10-22T03:21:38.793Z,3.83
2022-10-22T03:23:12.206Z,4.37
2022-10-22T03:24:47.623Z,4.13
2022-10-22T03:26:19.418Z,4.20
2022-10-22T03:27:52.991Z,3.80
2022-10-22T03:29:26.611Z,3.93
2022-10-22T03:30:58.200Z,3.80
2022-10-22T03:32:29.912Z,3.90
2022-10-22T03:34:01.576Z,3.40
2022-10-22T03:35:36.775Z,3.90
2022-10-22T03:37:08.459Z,4.10
2022-10-22T03:38:40.853Z,4.40
2022-10-22T03:40:13.457Z,3.40
2022-10-22T03:41:46.043Z,4.13
2022-10-22T03:43:17.925Z,3.90
2022-10-22T03:44:49.700Z,3.70
2022-10-22T03:46:21.371Z,3.40
2022-10-22T03:47:52.994Z,3.60
2022-10-22T03:49:24.625Z,3.90
2022-10-22T03:50:56.251Z,3.60
2022-10-22T03:52:28.113Z,3.90
2022-10-22T03:53:59.977Z,4.00
2022-10-22T03:55:31.925Z,3.33
2022-10-22T03:57:05.631Z,3.77
2022-10-22T03:58:39.340Z,3.60
2022-10-22T04:00:11.588Z,3.60
2022-10-22T04:01:43.649Z,3.60
2022-10-22T04:03:15.604Z,3.50
2022-10-22T04:04:47.546Z,3.50
2022-10-22T04:06:19.509Z,3.20
2022-10-22T04:07:51.356Z,3.93
2022-10-22T04:09:23.597Z,3.70
2022-10-22T04:10:55.581Z,3.73
2022-10-22T04:12:27.441Z,4.00
2022-10-22T04:13:59.386Z,3.70
2022-10-22T04:15:32.511Z,4.27
2022-10-22T04:17:04.425Z,4.20
2022-10-22T04:18:36.790Z,3.60
2022-10-22T04:20:09.453Z,3.97
2022-10-22T04:21:41.521Z,3.50
2022-10-22T04:23:14.168Z,4.00
2022-10-22T04:24:45.977Z,3.90
2022-10-22T04:26:19.280Z,3.67
2022-10-22T04:27:50.925Z,4.13
2022-10-22T04:29:23.275Z,4.10
2022-10-22T04:30:55.228Z,3.80
2022-10-22T04:32:27.915Z,3.73
2022-10-22T04:34:00.753Z,4.03
2022-10-22T04:35:32.404Z,4.07
2022-10-22T04:37:04.786Z,3.83
2022-10-22T04:38:36.552Z,3.80
2022-10-22T04:40:08.877Z,3.50
2022-10-22T04:41:40.643Z,3.93
2022-10-22T04:43:12.351Z,4.00
2022-10-22T04:44:43.964Z,4.50
2022-10-22T04:46:17.168Z,3.80
2022-10-22T04:47:48.790Z,4.67
2022-10-22T04:49:20.405Z,3.87
2022-10-22T04:50:52.111Z,3.93
2022-10-22T04:52:23.790Z,3.73
2022-10-22T04:53:55.747Z,3.73
2022-10-22T04:55:27.455Z,3.70
2022-10-22T04:56:59.150Z,3.90
2022-10-22T04:58:30.807Z,3.43
2022-10-22T05:00:02.956Z,3.80
2022-10-22T05:01:43.187Z,3.97
2022-10-22T05:03:15.271Z,3.40
2022-10-22T05:04:47.129Z,3.40
2022-10-22T05:06:20.841Z,3.33
2022-10-22T05:07:52.674Z,3.47
2022-10-22T05:09:24.532Z,3.20
2022-10-22T05:10:56.220Z,3.40
2022-10-22T05:12:29.685Z,3.83
2022-10-22T05:14:04.285Z,4.10
2022-10-22T05:15:36.237Z,3.33
2022-10-22T05:17:14.123Z,4.00
2022-10-22T05:18:46.094Z,3.57
2022-10-22T05:20:18.147Z,3.70
2022-10-22T05:21:51.518Z,3.33
2022-10-22T05:23:23.390Z,3.53
2022-10-22T05:24:55.342Z,3.50
2022-10-22T05:26:28.302Z,3.57
2022-10-22T05:28:00.431Z,3.10
2022-10-22T05:29:32.538Z,3.50
2022-10-22T05:31:05.934Z,3.53
2022-10-22T05:32:37.881Z,4.57
2022-10-22T05:34:09.942Z,3.40
2022-10-22T05:35:46.633Z,3.37
2022-10-22T05:37:18.869Z,3.60
2022-10-22T05:38:51.026Z,3.50
2022-10-22T05:40:30.455Z,3.47
2022-10-22T05:42:03.758Z,3.47
2022-10-22T05:43:36.830Z,3.40
2022-10-22T05:45:08.989Z,3.50
2022-10-22T05:46:41.503Z,3.27
2022-10-22T05:48:13.612Z,3.90
2022-10-22T05:49:45.474Z,3.03
2022-10-22T05:51:18.135Z,3.20
2022-10-22T05:52:50.109Z,3.73
2022-10-22T05:54:25.120Z,3.53
2022-10-22T05:55:59.431Z,3.43
2022-10-22T05:57:31.282Z,3.30
2022-10-22T06:00:40.602Z,2.90
2022-10-22T06:02:12.710Z,3.20
2022-10-22T06:03:45.555Z,2.90
2022-10-22T06:05:17.516Z,3.00
2022-10-22T06:06:51.407Z,3.27
2022-10-22T06:08:23.370Z,3.50
2022-10-22T06:09:55.425Z,2.83
2022-10-22T06:11:29.916Z,2.90
2022-10-22T06:13:08.039Z,2.80
2022-10-22T06:14:39.888Z,2.80
2022-10-22T06:16:11.835Z,3.10
2022-10-22T06:17:47.279Z,2.90
2022-10-22T06:19:23.540Z,3.10
2022-10-22T06:20:55.485Z,2.50
2022-10-22T06:22:27.347Z,2.97
2022-10-22T06:24:00.861Z,2.80
2022-10-22T06:25:32.996Z,2.40
2022-10-22T06:27:10.389Z,2.80
2022-10-22T06:28:42.221Z,2.53
2022-10-22T06:30:16.746Z,2.53
2022-10-22T06:31:49.103Z,2.87
2022-10-22T06:33:20.995Z,2.33
2022-10-22T06:34:53.026Z,3.07
2022-10-22T06:36:25.298Z,2.77
2022-10-22T06:37:57.107Z,2.70
2022-10-22T06:39:29.190Z,2.63
2022-10-22T06:41:06.064Z,2.60
2022-10-22T06:42:38.052Z,2.63
2022-10-22T06:44:17.347Z,2.70
2022-10-22T06:45:49.200Z,2.27
2022-10-22T06:47:21.057Z,2.60
2022-10-22T06:48:55.481Z,2.40
2022-10-22T06:50:27.312Z,2.40
2022-10-22T06:51:59.204Z,2.97
2022-10-22T06:53:33.577Z,2.60
2022-10-22T06:55:05.945Z,2.63
2022-10-22T06:56:37.997Z,3.33
2022-10-22T06:58:09.956Z,2.80
2022-10-22T06:59:41.717Z,2.50
2022-10-22T07:01:15.191Z,2.80
2022-10-22T07:02:56.392Z,2.80
2022-10-22T07:04:33.580Z,2.27
2022-10-22T07:06:10.247Z,2.97
2022-10-22T07:07:41.922Z,3.03
2022-10-22T07:09:13.708Z,2.83
2022-10-22T07:10:45.414Z,2.30
2022-10-22T07:12:17.551Z,2.60
2022-10-22T07:13:50.852Z,2.17
2022-10-22T07:15:22.535Z,2.50
2022-10-22T07:16:54.507Z,2.87
2022-10-22T07:18:26.364Z,2.40
2022-10-22T07:19:58.059Z,2.10
2022-10-22T07:21:30.476Z,2.40
2022-10-22T07:23:02.124Z,2.47
2022-10-22T07:24:33.757Z,2.10
2022-10-22T07:26:07.425Z,2.43
2022-10-22T07:27:39.450Z,2.40
2022-10-22T07:29:11.338Z,2.30
2022-10-22T07:30:43.306Z,2.50
2022-10-22T07:32:15.018Z,2.00
2022-10-22T07:33:46.958Z,2.60
2022-10-22T07:35:18.778Z,2.60
2022-10-22T07:36:50.439Z,2.40
2022-10-22T07:38:22.086Z,2.67
2022-10-22T07:39:53.714Z,2.80
2022-10-22T07:41:27.217Z,2.90
2022-10-22T07:42:59.148Z,3.00
2022-10-22T07:44:30.768Z,3.00
2022-10-22T07:46:02.873Z,2.80
2022-10-22T07:47:35.524Z,2.90
2022-10-22T07:49:07.225Z,3.93
2022-10-22T07:50:38.961Z,2.97
2022-10-22T07:52:10.644Z,2.93
2022-10-22T07:53:42.697Z,2.80
2022-10-22T07:55:14.348Z,2.67
2022-10-22T07:56:45.956Z,2.80
2022-10-22T07:58:21.550Z,2.63
2022-10-22T07:59:53.258Z,3.90
2022-10-22T08:01:24.965Z,2.60
2022-10-22T08:02:56.609Z,2.57
2022-10-22T08:04:28.300Z,2.63
2022-10-22T08:06:00.909Z,2.33
2022-10-22T08:07:32.818Z,2.60
2022-10-22T08:09:04.596Z,2.80
2022-10-22T08:10:36.830Z,2.37
2022-10-22T08:12:08.607Z,2.57
2022-10-22T08:13:44.851Z,2.60
2022-10-22T08:15:17.460Z,2.50
2022-10-22T08:16:52.212Z,2.03
2022-10-22T08:18:23.843Z,3.00
2022-10-22T08:19:55.511Z,2.30
2022-10-22T08:21:27.316Z,2.40
2022-10-22T08:22:59.426Z,2.10
2022-10-22T08:24:31.109Z,2.30
2022-10-22T08:26:03.301Z,2.27
2022-10-22T08:27:35.225Z,1.90
2022-10-22T08:29:07.741Z,2.23
2022-10-22T08:30:40.170Z,2.17
2022-10-22T08:32:12.407Z,2.40
2022-10-22T08:33:44.082Z,2.60
2022-10-22T08:35:17.675Z,2.43
2022-10-22T08:36:49.489Z,2.70
2022-10-22T08:38:21.347Z,2.20
2022-10-22T08:39:53.273Z,2.30
2022-10-22T08:41:25.950Z,2.60
2022-10-22T08:43:18.459Z,3.20
2022-10-22T08:45:25.237Z,3.30
2022-10-22T08:47:09.267Z,2.40
2022-10-22T08:48:49.405Z,3.47
2022-10-22T08:50:31.219Z,3.27
2022-10-22T08:52:03.345Z,2.87
2022-10-22T08:53:45.418Z,4.73
2022-10-22T08:55:17.318Z,4.40
2022-10-22T08:56:58.990Z,4.20
2022-10-22T08:58:47.063Z,3.23
2022-10-22T09:00:31.265Z,3.00
2022-10-22T09:02:09.728Z,2.70
2022-10-22T09:04:00.405Z,2.60
2022-10-22T09:05:53.663Z,2.90
2022-10-22T09:07:25.355Z,3.10
2022-10-22T09:08:59.663Z,2.50
2022-10-22T09:10:38.123Z,2.67
2022-10-22T09:12:20.103Z,2.67
2022-10-22T09:13:54.818Z,2.47
2022-10-22T09:15:28.798Z,4.60
2022-10-22T09:17:21.158Z,4.70
2022-10-22T09:19:17.691Z,3.17
2022-10-22T09:21:12.764Z,3.73
2022-10-22T09:22:57.703Z,3.60
2022-10-22T09:24:44.026Z,3.00
2022-10-22T09:26:16.764Z,3.07
2022-10-22T09:27:50.099Z,2.77
2022-10-22T09:29:29.409Z,2.07
2022-10-22T09:31:01.326Z,3.17
2022-10-22T09:32:33.522Z,2.30
2022-10-22T09:34:07.506Z,2.37
2022-10-22T09:36:03.251Z,3.07
2022-10-22T09:37:34.970Z,2.83
2022-10-22T09:39:24.078Z,2.90
2022-10-22T09:40:58.212Z,3.20
2022-10-22T09:42:30.079Z,3.33
2022-10-22T09:44:01.875Z,2.20
2022-10-22T09:45:33.523Z,2.63
2022-10-22T09:48:01.085Z,2.50
2022-10-22T09:49:36.862Z,2.90
2022-10-22T09:51:19.098Z,2.70
2022-10-22T09:53:22.178Z,2.40
2022-10-22T09:54:54.170Z,2.53
2022-10-22T09:56:31.086Z,2.10
2022-10-22T09:58:02.806Z,2.67
2022-10-22T09:59:41.142Z,2.40
2022-10-22T10:01:28.166Z,2.90
2022-10-22T10:03:00.933Z,2.30
2022-10-22T10:04:42.395Z,2.20
2022-10-22T10:06:19.155Z,2.50
2022-10-22T10:07:50.823Z,1.90
2022-10-22T10:09:25.463Z,2.30
2022-10-22T10:11:02.950Z,2.30
2022-10-22T10:12:48.812Z,2.47
2022-10-22T10:14:38.879Z,2.70
2022-10-22T10:16:16.441Z,2.67
2022-10-22T10:18:05.387Z,2.10
2022-10-22T10:19:51.531Z,2.60
2022-10-22T10:21:30.112Z,2.30
2022-10-22T10:23:20.458Z,2.33
2022-10-22T10:25:13.275Z,2.10
2022-10-22T10:27:11.086Z,2.60
2022-10-22T10:29:00.821Z,2.23
2022-10-22T10:30:33.976Z,2.57
2022-10-22T10:32:21.063Z,2.10
2022-10-22T10:34:14.812Z,2.63
2022-10-22T10:35:54.893Z,2.47
2022-10-22T10:37:33.595Z,2.40
2022-10-22T10:39:12.744Z,2.67
2022-10-22T10:41:17.497Z,2.47
2022-10-22T10:42:59.177Z,2.30
2022-10-22T10:44:44.573Z,2.20
2022-10-22T10:47:02.463Z,2.17
2022-10-22T10:49:11.118Z,1.77
2022-10-22T10:50:50.191Z,2.40
2022-10-22T10:52:26.684Z,2.00
2022-10-22T10:54:20.183Z,2.40
2022-10-22T10:56:18.936Z,2.30
2022-10-22T10:58:09.591Z,2.03
2022-10-22T10:59:58.890Z,2.20
2022-10-22T11:01:45.444Z,1.97
2022-10-22T11:04:00.806Z,2.33
2022-10-22T11:05:39.824Z,2.23
2022-10-22T11:07:30.340Z,2.10
2022-10-22T11:09:33.269Z,2.10
2022-10-22T11:11:22.546Z,2.67
2022-10-22T11:13:01.578Z,4.03
2022-10-22T11:14:55.293Z,2.40
2022-10-22T11:16:57.600Z,2.10
2022-10-22T11:18:37.760Z,1.83
2022-10-22T11:20:20.035Z,1.70
2022-10-22T11:22:11.903Z,1.90
2022-10-22T11:24:04.700Z,2.00
2022-10-22T11:25:47.574Z,1.60
2022-10-22T11:27:25.590Z,2.10
2022-10-22T11:28:58.984Z,1.87
2022-10-22T11:30:36.090Z,2.03
2022-10-22T11:32:15.575Z,2.10
2022-10-22T11:34:32.770Z,1.87
2022-10-22T11:36:07.334Z,1.60
2022-10-22T11:37:39.755Z,1.90
2022-10-22T11:39:39.394Z,1.70
2022-10-22T11:41:18.176Z,1.80
2022-10-22T11:42:53.975Z,1.70
2022-10-22T11:44:25.902Z,1.57
2022-10-22T11:46:23.523Z,2.03
2022-10-22T11:48:10.049Z,1.70
2022-10-22T11:50:06.788Z,2.17
2022-10-22T11:51:40.033Z,1.90
2022-10-22T11:53:18.733Z,1.90
2022-10-22T11:54:55.094Z,1.40
2022-10-22T11:56:36.168Z,2.10
2022-10-22T11:58:28.850Z,2.03
2022-10-22T12:00:01.314Z,1.87
2022-10-22T12:01:42.933Z,1.87
2022-10-22T12:03:32.892Z,2.13
2022-10-22T12:05:22.480Z,2.03
2022-10-22T12:06:59.764Z,1.90
2022-10-22T12:08:33.770Z,2.20
2022-10-22T12:10:18.405Z,1.57
2022-10-22T12:11:51.003Z,2.13
2022-10-22T12:13:32.172Z,2.37
2022-10-22T12:15:23.849Z,1.90
2022-10-22T12:16:58.537Z,2.07
2022-10-22T12:18:41.151Z,1.80
2022-10-22T12:20:14.073Z,1.77
2022-10-22T12:22:13.317Z,1.70
2022-10-22T12:23:46.622Z,2.37
2022-10-22T12:25:23.383Z,1.90
2022-10-22T12:26:55.182Z,1.90
2022-10-22T12:28:26.937Z,1.80
2022-10-22T12:30:00.748Z,1.87
2022-10-22T12:31:37.682Z,1.77
2022-10-22T12:33:19.990Z,1.70
2022-10-22T12:34:52.911Z,1.70
2022-10-22T12:36:26.996Z,1.87
2022-10-22T12:38:02.624Z,1.43
2022-10-22T12:39:35.331Z,1.73
2022-10-22T12:41:09.257Z,1.67
2022-10-22T12:42:47.873Z,1.80
2022-10-22T12:44:20.280Z,1.67
2022-10-22T12:45:52.789Z,2.27
2022-10-22T12:47:24.621Z,1.60
2022-10-22T12:49:00.676Z,2.63
2022-10-22T12:50:40.198Z,1.83
2022-10-22T12:52:17.536Z,2.00
2022-10-22T12:53:54.204Z,1.87
2022-10-22T12:55:26.808Z,2.03
2022-10-22T12:56:58.584Z,1.67
2022-10-22T12:58:38.530Z,2.27
2022-10-22T13:00:32.363Z,1.93
2022-10-22T13:02:21.320Z,1.77
2022-10-22T13:04:05.166Z,2.70
2022-10-22T13:05:40.117Z,1.80
2022-10-22T13:07:18.310Z,1.50
2022-10-22T13:09:02.416Z,1.50
2022-10-22T13:10:36.930Z,1.90
2022-10-22T13:12:14.657Z,1.87
2022-10-22T13:13:46.941Z,2.03
2022-10-22T13:15:34.480Z,1.87
2022-10-22T13:17:37.668Z,1.90
2022-10-22T13:19:39.863Z,1.77
2022-10-22T13:21:27.268Z,1.60
2022-10-22T13:23:02.539Z,2.13
2022-10-22T13:24:38.970Z,1.67
2022-10-22T13:26:17.681Z,2.47
2022-10-22T13:27:53.686Z,2.00
2022-10-22T13:29:25.446Z,2.00
2022-10-22T13:31:08.609Z,1.77
2022-10-22T13:32:41.631Z,1.93
2022-10-22T13:34:18.030Z,1.93
2022-10-22T13:35:49.731Z,2.07
2022-10-22T13:37:21.382Z,2.27
2022-10-22T13:38:53.043Z,2.00
2022-10-22T13:40:24.945Z,1.93
2022-10-22T13:41:56.587Z,1.80
2022-10-22T13:43:28.294Z,1.90
2022-10-22T13:45:02.687Z,1.70
2022-10-22T13:46:40.407Z,2.50
2022-10-22T13:48:19.106Z,2.50
2022-10-22T13:49:51.010Z,2.77
2022-10-22T13:51:34.726Z,3.27
2022-10-22T13:53:10.714Z,3.10
2022-10-22T13:54:42.350Z,3.20
2022-10-22T13:56:18.818Z,4.60
2022-10-22T13:57:50.553Z,3.87
2022-10-22T13:59:23.897Z,3.33
2022-10-22T14:00:58.788Z,3.30
2022-10-22T14:02:30.515Z,3.37
2022-10-22T14:04:05.077Z,3.30
2022-10-22T14:05:36.818Z,2.77
2022-10-22T14:07:16.417Z,2.50
2022-10-22T14:08:51.505Z,2.50
2022-10-22T14:10:24.947Z,2.50
2022-10-22T14:11:56.696Z,2.10
2022-10-22T14:13:28.373Z,2.13
2022-10-22T14:15:00.059Z,2.20
2022-10-22T14:16:33.116Z,1.40
2022-10-22T14:18:06.921Z,1.77
2022-10-22T14:19:39.300Z,1.57
2022-10-22T14:21:13.511Z,2.07
2022-10-22T14:22:46.818Z,1.30
2022-10-22T14:24:18.498Z,2.10
2022-10-22T14:25:53.627Z,2.00
2022-10-22T14:27:25.362Z,1.87
2022-10-22T14:29:09.476Z,2.03
2022-10-22T14:30:41.986Z,1.57
2022-10-22T14:32:16.478Z,1.67
2022-10-22T14:33:48.888Z,1.43
2022-10-22T14:35:22.439Z,1.97
2022-10-22T14:36:54.100Z,1.80
2022-10-22T14:38:25.862Z,2.67
2022-10-22T14:40:01.697Z,1.67
2022-10-22T14:41:34.020Z,1.70
2022-10-22T14:43:05.765Z,1.63
2022-10-22T14:44:37.643Z,2.30
2022-10-22T14:46:12.355Z,2.63
2022-10-22T14:47:44.356Z,2.83
2022-10-22T14:49:16.112Z,3.00
2022-10-22T14:50:48.277Z,2.20
2022-10-22T14:52:20.120Z,2.17
2022-10-22T14:53:56.211Z,1.93
2022-10-22T14:55:28.955Z,2.33
2022-10-22T14:57:04.320Z,1.77
2022-10-22T14:58:35.948Z,1.70
2022-10-22T15:00:13.315Z,1.80
2022-10-22T15:01:44.987Z,2.00
2022-10-22T15:03:16.653Z,1.60
2022-10-22T15:04:49.226Z,2.03
2022-10-22T15:06:20.985Z,1.67
2022-10-22T15:07:52.654Z,1.50
2022-10-22T15:09:24.446Z,1.80
2022-10-22T15:11:07.500Z,1.70
2022-10-22T15:12:39.245Z,1.93
2022-10-22T15:14:10.933Z,1.53
2022-10-22T15:15:42.625Z,1.73
2022-10-22T15:17:15.021Z,2.03
2022-10-22T15:18:46.777Z,1.73
2022-10-22T15:20:18.479Z,1.87
2022-10-22T15:21:50.310Z,1.90
2022-10-22T15:23:22.088Z,1.87
2022-10-22T15:24:55.104Z,1.70
2022-10-22T15:26:27.728Z,1.87
2022-10-22T15:28:03.331Z,1.43
2022-10-22T15:29:41.902Z,1.60
2022-10-22T15:31:14.832Z,2.00
2022-10-22T15:32:46.554Z,1.90
2022-10-22T15:34:30.028Z,1.53
2022-10-22T15:36:11.350Z,1.70
2022-10-22T15:37:45.222Z,1.63
2022-10-22T15:39:17.377Z,1.80
2022-10-22T15:40:49.170Z,2.17
2022-10-22T15:42:20.861Z,1.90
2022-10-22T15:43:53.404Z,2.00
2022-10-22T15:45:25.630Z,2.00
2022-10-22T15:46:58.272Z,1.83
2022-10-22T15:48:30.433Z,1.80
2022-10-22T15:50:02.133Z,2.10
2022-10-22T15:51:33.902Z,2.07
2022-10-22T15:53:05.786Z,1.77
2022-10-22T15:54:37.494Z,1.80
2022-10-22T15:56:09.711Z,2.30
2022-10-22T15:57:41.582Z,1.50
2022-10-22T15:59:15.455Z,1.70
2022-10-22T16:00:47.200Z,1.73
2022-10-22T16:02:18.981Z,1.50
2022-10-22T16:04:00.072Z,1.70
2022-10-22T16:05:31.826Z,1.60
2022-10-22T16:07:03.486Z,2.00
2022-10-22T16:08:35.281Z,1.80
2022-10-22T16:10:07.628Z,1.67
2022-10-22T16:11:40.127Z,1.60
2022-10-22T16:13:11.786Z,1.70
2022-10-22T16:14:43.385Z,1.40
2022-10-22T16:16:15.008Z,1.97
2022-10-22T16:17:46.722Z,1.93
2022-10-22T16:19:20.321Z,2.50
2022-10-22T16:20:52.082Z,2.33
2022-10-22T16:22:23.710Z,2.60
2022-10-22T16:23:55.426Z,2.10
2022-10-22T16:25:27.183Z,2.30
2022-10-22T16:27:00.052Z,2.23
2022-10-22T16:28:31.695Z,2.07
2022-10-22T16:30:03.761Z,1.90
2022-10-22T16:31:35.474Z,2.03
2022-10-22T16:33:07.906Z,2.67
2022-10-22T16:34:39.547Z,2.67
2022-10-22T16:36:13.519Z,2.60
2022-10-22T16:37:45.182Z,2.00
2022-10-22T16:39:17.006Z,2.10
2022-10-22T16:40:49.271Z,2.07
2022-10-22T16:42:20.895Z,1.87
2022-10-22T16:43:55.207Z,1.93
2022-10-22T16:45:26.868Z,1.80
2022-10-22T16:46:58.477Z,2.50
2022-10-22T16:48:30.139Z,1.87
2022-10-22T16:50:01.888Z,2.10
2022-10-22T16:51:34.524Z,2.70
2022-10-22T16:53:06.147Z,1.80
2022-10-22T16:54:37.780Z,1.90
2022-10-22T16:56:14.339Z,2.00
2022-10-22T16:57:53.239Z,1.93
2022-10-22T16:59:24.970Z,2.00
2022-10-22T17:00:56.682Z,2.03
2022-10-22T17:02:28.508Z,2.10
2022-10-22T17:04:00.499Z,1.80
2022-10-22T17:05:32.144Z,2.17
2022-10-22T17:07:03.821Z,1.70
2022-10-22T17:08:36.922Z,2.40
2022-10-22T17:10:08.929Z,2.30
2022-10-22T17:11:42.613Z,2.00
2022-10-22T17:13:16.477Z,2.10
2022-10-22T17:14:48.114Z,2.17
2022-10-22T17:16:22.640Z,2.23
2022-10-22T17:17:54.284Z,2.57
2022-10-22T17:19:38.736Z,2.77
2022-10-22T17:21:11.423Z,3.10
2022-10-22T17:22:43.402Z,2.50
2022-10-22T17:24:15.208Z,2.27
2022-10-22T17:25:46.864Z,2.40
2022-10-22T17:27:18.488Z,2.90
2022-10-22T17:28:50.809Z,2.53
2022-10-22T17:30:28.180Z,2.23
2022-10-22T17:32:01.056Z,2.20
2022-10-22T17:33:34.737Z,2.80
2022-10-22T17:35:07.856Z,2.80
2022-10-22T17:36:39.528Z,2.97
2022-10-22T17:38:12.729Z,3.23
2022-10-22T17:39:44.781Z,3.40
2022-10-22T17:41:19.655Z,3.27
2022-10-22T17:42:51.289Z,3.40
2022-10-22T17:44:23.098Z,3.37
2022-10-22T17:46:06.834Z,3.23
2022-10-22T17:47:38.609Z,4.03
2022-10-22T17:49:19.600Z,3.90
2022-10-22T17:50:53.652Z,3.70
2022-10-22T17:52:27.306Z,4.33
2022-10-22T17:53:59.217Z,3.23
2022-10-22T17:55:30.898Z,3.70
2022-10-22T17:57:02.829Z,3.40
2022-10-22T17:58:34.493Z,3.43
2022-10-22T18:00:07.006Z,3.73
2022-10-22T18:01:45.091Z,3.20
2022-10-22T18:03:16.707Z,3.50
2022-10-22T18:04:52.214Z,3.53
2022-10-22T18:06:23.845Z,4.20
2022-10-22T18:07:56.957Z,3.67
2022-10-22T18:09:28.597Z,4.40
2022-10-22T18:11:00.298Z,3.70
2022-10-22T18:12:31.928Z,4.07
2022-10-22T18:14:04.859Z,3.73
2022-10-22T18:15:36.804Z,4.07
2022-10-22T18:17:08.487Z,4.90
2022-10-22T18:18:40.241Z,4.47
2022-10-22T18:20:12.322Z,5.40
2022-10-22T18:21:44.046Z,5.13
2022-10-22T18:23:15.678Z,5.27
2022-10-22T18:24:47.318Z,4.60
2022-10-22T18:26:24.319Z,4.70
2022-10-22T18:27:58.456Z,5.20
2022-10-22T18:29:30.161Z,5.13
2022-10-22T18:31:09.366Z,4.97
2022-10-22T18:32:40.978Z,4.50
2022-10-22T18:34:12.870Z,5.13
2022-10-22T18:35:46.283Z,4.90
2022-10-22T18:37:18.048Z,5.03
2022-10-22T18:38:50.524Z,4.67
2022-10-22T18:40:22.218Z,5.90
2022-10-22T18:41:54.689Z,5.43
2022-10-22T18:43:26.478Z,5.20
2022-10-22T18:44:58.107Z,5.73
2022-10-22T18:46:31.394Z,5.40
2022-10-22T18:48:05.101Z,5.90
2022-10-22T18:49:36.743Z,6.50
2022-10-22T18:51:09.349Z,6.50
2022-10-22T18:52:41.203Z,7.30
2022-10-22T18:54:22.806Z,7.20
2022-10-22T18:55:55.203Z,7.13
2022-10-22T18:57:26.956Z,7.10
2022-10-22T18:58:58.663Z,6.90
2022-10-22T19:00:30.505Z,8.00
2022-10-22T19:02:02.202Z,7.73
2022-10-22T19:03:33.851Z,7.30
2022-10-22T19:05:05.979Z,7.90
2022-10-22T19:06:40.613Z,7.77
2022-10-22T19:08:16.935Z,7.50
2022-10-22T19:09:48.659Z,7.90
2022-10-22T19:11:20.800Z,7.07
2022-10-22T19:12:52.506Z,7.10
2022-10-22T19:14:24.174Z,9.20
2022-10-22T19:16:02.651Z,8.27
2022-10-22T19:17:34.794Z,7.00
2022-10-22T19:19:08.145Z,7.57
2022-10-22T19:20:39.814Z,7.27
2022-10-22T19:22:11.549Z,7.73
2022-10-22T19:25:22.290Z,8.20
2022-10-22T19:26:53.914Z,7.87
2022-10-22T19:28:25.583Z,8.90
2022-10-22T19:29:57.298Z,8.63
2022-10-22T19:31:31.015Z,7.03
2022-10-22T19:33:02.673Z,8.20
2022-10-22T19:34:34.403Z,8.90
2022-10-22T19:36:07.884Z,8.10
2022-10-22T19:37:39.688Z,8.70
2022-10-22T19:39:14.221Z,7.97
2022-10-22T19:40:45.960Z,8.73
2022-10-22T19:42:17.619Z,8.43
2022-10-22T19:43:51.754Z,8.77
2022-10-22T19:45:23.378Z,8.20
2022-10-22T19:46:55.042Z,8.60
2022-10-22T19:48:28.582Z,7.30
2022-10-22T19:50:00.190Z,8.40
2022-10-22T19:51:33.781Z,7.87
2022-10-22T19:53:05.474Z,7.87
2022-10-22T19:54:40.659Z,8.37
2022-10-22T19:56:12.907Z,7.97
2022-10-22T19:57:44.721Z,8.13
2022-10-22T19:59:17.726Z,7.47
2022-10-22T20:00:49.656Z,7.83
2022-10-22T20:02:21.316Z,7.90
2022-10-22T20:03:53.381Z,7.50
2022-10-22T20:05:24.979Z,8.00
2022-10-22T20:06:57.114Z,8.60
2022-10-22T20:08:28.835Z,7.70
2022-10-22T20:10:00.511Z,7.50
2022-10-22T20:11:32.214Z,7.23
2022-10-22T20:13:04.346Z,7.80
2022-10-22T20:14:35.971Z,7.30
2022-10-22T20:16:07.663Z,7.03
2022-10-22T20:17:39.593Z,6.60
2022-10-22T20:19:15.829Z,6.57
2022-10-22T20:20:47.525Z,6.60
2022-10-22T20:22:19.196Z,7.63
2022-10-22T20:23:54.304Z,7.63
2022-10-22T20:25:26.060Z,7.47
2022-10-22T20:26:57.764Z,7.40
2022-10-22T20:28:29.476Z,7.30
2022-10-22T20:30:01.131Z,6.70
2022-10-22T20:31:33.026Z,6.90
2022-10-22T20:33:04.675Z,6.97
2022-10-22T20:34:37.401Z,6.70
2022-10-22T20:36:13.945Z,7.27
2022-10-22T20:37:46.106Z,6.83
2022-10-22T20:39:18.762Z,7.23
2022-10-22T20:41:08.307Z,6.33
2022-10-22T20:42:42.840Z,7.17
2022-10-22T20:44:16.734Z,7.30
2022-10-22T20:45:48.441Z,6.70
2022-10-22T20:47:20.126Z,6.90
2022-10-22T20:48:53.584Z,6.23
2022-10-22T20:50:29.508Z,6.47
2022-10-22T20:52:01.787Z,6.40
2022-10-22T20:53:33.463Z,6.63
2022-10-22T20:55:05.663Z,7.77
2022-10-22T20:56:38.964Z,6.00
2022-10-22T20:58:10.679Z,6.80
2022-10-22T20:59:42.349Z,7.00
2022-10-22T21:01:22.023Z,6.30
2022-10-22T21:02:53.781Z,6.73
2022-10-22T21:04:25.584Z,6.10
2022-10-22T21:05:57.216Z,6.70
2022-10-22T21:07:28.826Z,7.10
2022-10-22T21:09:00.574Z,6.60
2022-10-22T21:10:33.528Z,6.67
2022-10-22T21:12:06.299Z,8.00
2022-10-22T21:13:37.955Z,7.33
2022-10-22T21:15:12.591Z,7.10
2022-10-22T21:16:49.237Z,7.93